Impacts TAF Board
For situational awareness. Not to be used for flight planning purposes.
IDs:

KNEW - New Orleans/Lakefron, LA, US

Issued at 2320 UTC 22 Oct 2018
Updated at 0314 UTC 23 Oct 2018
Potential Impact None Slight Moderate High
Time<<23/16Z 23/17Z 23/18Z 23/19Z 23/20Z 23/21Z 23/22Z 23/23Z 24/00Z 24/01Z 24/02Z 24/03Z 24/04Z>>
Type PRVL PRVL PRVL PRVL PRVL PRVL PRVL PRVL
VIS 5 5 5 5 5 5 5 5
CIG 10 10 10 10 10 10 10 10
Cover OVC OVC OVC OVC OVC OVC OVC OVC
FltCat MVFR MVFR MVFR MVFR MVFR MVFR MVFR MVFR
WX -SHRA -SHRA -SHRA -SHRA -SHRA -SHRA -SHRA -SHRA
WDir 50 50 50 50 50 50 50 60
WSpd 9 9 9 9 9 9 9 9
WGst -- -- -- -- -- -- -- --
Raw TAF
KNEW 222320Z 2300/2324 08007KT P6SM SCT030 OVC100
  FM230600 06007KT P6SM VCSH SCT035 OVC100
  FM230900 05007KT P6SM OVC040
  PROB30 2309/2313 4SM -SHRA OVC025
  FM231300 05009KT P6SM -SHRA BKN030 OVC035
  FM231600 05009KT 5SM -SHRA BKN010 OVC040
  FM232300 06009KT 5SM -SHRA BKN010 OVC020


METAR Board
For situational awareness. Not to be used for flight planning purposes.